Time;durP1;ratioP1;P1;durP2;ratioP2;P2;SDS_P1;SDS_P2;PMS_P1;PMS_P2;Temp;Humidity;BMP_temperature;BMP_pressure;BME280_temperature;BME280_humidity;BME280_pressure;Samples;Min_cycle;Max_cycle;Signal;HPM_P1;HPM_P2
2021/03/27 00:01:00;;;;;;;4.80;1.20;;;8.20;89.20;;;;;;5093333;28;20529;-71
2021/03/27 00:03:46;;;;;;;4.75;1.45;;;8.20;89.10;;;;;;5093415;28;20484;-71
2021/03/27 00:06:21;;;;;;;3.15;1.35;;;8.10;90.00;;;;;;5092867;28;20044;-71
2021/03/27 00:08:54;;;;;;;3.78;1.48;;;8.00;89.40;;;;;;5093642;28;20472;-71
2021/03/27 00:11:34;;;;;;;3.65;1.17;;;8.00;89.10;;;;;;5093291;28;20036;-71
2021/03/27 00:14:02;;;;;;;3.17;1.58;;;7.90;89.70;;;;;;5093294;28;20117;-71
2021/03/27 00:16:57;;;;;;;6.30;1.88;;;7.80;90.00;;;;;;5093035;28;20036;-71
2021/03/27 00:19:36;;;;;;;3.78;1.08;;;7.70;90.00;;;;;;5083753;28;20044;-71
2021/03/27 00:22:32;;;;;;;4.07;1.20;;;7.60;90.10;;;;;;5093295;28;20396;-71
2021/03/27 00:25:15;;;;;;;1.65;1.00;;;7.40;90.30;;;;;;5092901;28;20052;-71
2021/03/27 00:27:48;;;;;;;5.57;1.50;;;7.40;90.30;;;;;;5093343;28;20476;-70
2021/03/27 00:30:20;;;;;;;5.00;1.13;;;7.20;91.10;;;;;;5093456;28;20123;-71
2021/03/27 00:32:50;;;;;;;3.13;1.05;;;7.20;90.90;;;;;;5093346;28;20043;-71
2021/03/27 00:35:24;;;;;;;3.08;1.00;;;7.10;91.00;;;;;;5092986;28;20048;-71
2021/03/27 00:37:50;;;;;;;3.38;1.30;;;7.00;91.10;;;;;;5093625;28;20113;-71
2021/03/27 00:40:21;;;;;;;3.47;1.30;;;7.00;90.90;;;;;;5093089;28;20044;-71
2021/03/27 00:43:02;;;;;;;4.20;1.00;;;6.90;90.80;;;;;;5093519;28;20086;-71
2021/03/27 00:45:33;;;;;;;3.03;1.20;;;6.90;90.90;;;;;;5092609;28;20040;-71
2021/03/27 00:48:07;;;;;;;5.63;1.00;;;6.80;91.30;;;;;;5093055;28;20040;-71
2021/03/27 00:50:47;;;;;;;2.63;1.42;;;6.80;91.40;;;;;;5092912;28;20488;-71
2021/03/27 00:53:20;;;;;;;4.40;1.50;;;6.70;91.70;;;;;;5093243;28;20040;-71
2021/03/27 00:55:52;;;;;;;5.28;1.92;;;6.70;91.80;;;;;;5092545;28;20085;-71
2021/03/27 00:58:36;;;;;;;3.28;1.25;;;6.70;91.80;;;;;;5092808;28;20036;-71
2021/03/27 01:01:06;;;;;;;4.07;1.85;;;6.60;92.00;;;;;;5092884;28;20040;-71
2021/03/27 01:03:40;;;;;;;5.15;1.70;;;6.60;92.00;;;;;;5095558;28;20043;-71
2021/03/27 01:06:10;;;;;;;3.25;1.90;;;6.60;92.30;;;;;;5096222;28;20040;-71
2021/03/27 01:08:38;;;;;;;7.43;1.50;;;6.60;92.30;;;;;;5096745;28;20097;-70
2021/03/27 01:11:14;;;;;;;7.88;2.08;;;6.60;92.10;;;;;;5096542;28;20111;-71
2021/03/27 01:13:46;;;;;;;3.15;1.58;;;6.60;92.10;;;;;;5096549;28;20035;-71
2021/03/27 01:16:20;;;;;;;7.63;1.75;;;6.70;92.10;;;;;;5096119;28;20052;-71
2021/03/27 01:18:52;;;;;;;2.60;1.52;;;6.70;92.20;;;;;;5096439;28;20395;-71
2021/03/27 01:21:30;;;;;;;3.60;1.83;;;6.60;92.20;;;;;;5096300;28;20043;-71
2021/03/27 01:23:58;;;;;;;3.75;1.48;;;6.60;92.30;;;;;;5096270;28;20063;-71
2021/03/27 01:26:27;;;;;;;3.70;1.70;;;6.60;92.30;;;;;;5095939;28;20537;-70
2021/03/27 01:29:01;;;;;;;1.98;1.33;;;6.60;92.30;;;;;;5096700;28;20086;-71
2021/03/27 01:31:45;;;;;;;4.00;1.85;;;6.60;92.10;;;;;;5078068;28;20111;-71
2021/03/27 01:34:43;;;;;;;3.35;1.33;;;6.60;92.30;;;;;;5096228;28;20036;-71
2021/03/27 01:37:22;;;;;;;5.30;2.33;;;6.60;92.10;;;;;;5051254;28;20051;-70
2021/03/27 01:39:57;;;;;;;2.65;1.10;;;6.60;92.10;;;;;;5096423;28;20032;-71
2021/03/27 01:43:04;;;;;;;2.80;1.52;;;6.60;92.10;;;;;;5096275;28;20052;-71
2021/03/27 01:45:55;;;;;;;2.78;1.38;;;6.60;92.00;;;;;;5013712;28;20108;-71
2021/03/27 01:48:25;;;;;;;2.58;1.40;;;6.60;92.10;;;;;;5013770;28;20190;-71
2021/03/27 01:50:57;;;;;;;2.97;1.77;;;6.60;92.20;;;;;;5069947;28;20055;-71
2021/03/27 01:53:35;;;;;;;6.28;1.30;;;6.50;92.20;;;;;;5095713;28;20483;-71
2021/03/27 01:56:17;;;;;;;4.05;1.20;;;6.60;92.30;;;;;;5095330;28;20089;-71
2021/03/27 01:59:07;;;;;;;2.67;1.42;;;6.50;92.30;;;;;;5095886;28;20032;-71
2021/03/27 02:01:45;;;;;;;2.28;1.30;;;6.50;92.60;;;;;;5095538;28;20040;-71
2021/03/27 02:04:27;;;;;;;2.53;1.20;;;6.50;92.50;;;;;;5095675;28;20373;-71
2021/03/27 02:07:14;;;;;;;4.10;1.70;;;6.50;92.70;;;;;;5095442;28;20047;-71
2021/03/27 02:10:16;;;;;;;2.40;1.60;;;6.50;92.60;;;;;;5095854;28;20036;-71
2021/03/27 02:13:07;;;;;;;4.45;2.00;;;6.50;92.70;;;;;;5095811;28;20115;-71
2021/03/27 02:15:53;;;;;;;5.35;1.88;;;6.40;92.70;;;;;;5095273;28;20127;-71
2021/03/27 02:18:35;;;;;;;6.80;1.73;;;6.40;92.70;;;;;;5095360;28;20381;-70
2021/03/27 02:21:14;;;;;;;3.58;1.77;;;6.40;92.70;;;;;;5095490;28;20040;-70
2021/03/27 02:23:52;;;;;;;8.07;2.15;;;6.40;92.50;;;;;;5095341;28;20031;-71
2021/03/27 02:26:31;;;;;;;5.60;1.60;;;6.50;92.90;;;;;;5094741;28;20044;-71
2021/03/27 02:29:27;;;;;;;7.38;1.30;;;6.40;92.90;;;;;;5095165;28;20036;-71
2021/03/27 02:32:07;;;;;;;4.20;1.50;;;6.40;93.00;;;;;;5078941;28;20043;-70
2021/03/27 02:34:53;;;;;;;3.70;1.33;;;6.40;92.90;;;;;;5094698;28;20040;-71
2021/03/27 02:38:00;;;;;;;5.18;1.80;;;6.40;93.00;;;;;;5095049;28;20085;-70
2021/03/27 02:40:33;;;;;;;3.70;1.75;;;6.40;93.10;;;;;;5094519;28;20139;-71
2021/03/27 02:43:20;;;;;;;4.85;2.20;;;6.40;93.00;;;;;;5094718;28;20043;-70
2021/03/27 02:46:05;;;;;;;3.30;1.85;;;6.40;93.10;;;;;;5094552;28;20044;-71
2021/03/27 02:48:51;;;;;;;6.38;3.22;;;6.40;93.10;;;;;;5095158;28;20044;-71
2021/03/27 02:51:35;;;;;;;3.65;3.05;;;6.40;93.20;;;;;;5094640;28;20082;-70
2021/03/27 02:54:30;;;;;;;5.85;2.60;;;6.40;93.20;;;;;;5094741;28;20051;-71
2021/03/27 02:57:02;;;;;;;5.80;3.03;;;6.40;93.30;;;;;;5094556;28;20062;-71
2021/03/27 02:59:42;;;;;;;9.50;4.23;;;6.40;93.20;;;;;;5094459;28;20499;-70
2021/03/27 03:02:39;;;;;;;7.80;4.55;;;6.50;93.20;;;;;;5094429;28;20290;-71
2021/03/27 03:05:24;;;;;;;8.85;4.70;;;6.60;93.20;;;;;;5094379;28;20084;-71
2021/03/27 03:07:49;;;;;;;9.93;4.97;;;6.60;93.00;;;;;;5094426;28;20144;-70
2021/03/27 03:10:49;;;;;;;7.28;5.03;;;6.50;93.30;;;;;;5094245;28;20494;-70
2021/03/27 03:13:41;;;;;;;10.15;5.95;;;6.60;93.30;;;;;;5094378;28;20097;-70
2021/03/27 03:16:13;;;;;;;8.18;5.53;;;6.50;93.50;;;;;;5093763;28;20042;-71
2021/03/27 03:19:14;;;;;;;12.77;6.53;;;6.60;93.40;;;;;;5094148;28;20085;-70
2021/03/27 03:21:48;;;;;;;10.55;6.88;;;6.60;93.30;;;;;;5050961;28;20097;-70
2021/03/27 03:24:24;;;;;;;9.40;6.28;;;6.60;93.50;;;;;;5093940;28;20048;-70
2021/03/27 03:27:11;;;;;;;10.45;6.28;;;6.60;93.40;;;;;;5093325;28;20081;-70
2021/03/27 03:30:14;;;;;;;15.27;7.43;;;6.60;93.30;;;;;;5094078;28;20110;-71
2021/03/27 03:33:09;;;;;;;10.75;7.97;;;6.60;93.30;;;;;;5093898;28;20160;-71
2021/03/27 03:36:00;;;;;;;12.15;8.82;;;6.60;93.20;;;;;;5093717;28;20071;-71
2021/03/27 03:39:07;;;;;;;17.33;9.38;;;6.60;93.30;;;;;;5093840;28;20040;-71
2021/03/27 03:41:44;;;;;;;15.68;9.52;;;6.50;93.40;;;;;;5093719;28;20085;-70
2021/03/27 03:44:23;;;;;;;14.70;9.55;;;6.50;93.50;;;;;;5093550;28;20479;-70
2021/03/27 03:47:07;;;;;;;14.00;9.00;;;6.50;93.30;;;;;;5093574;28;20040;-70
2021/03/27 03:49:57;;;;;;;17.08;9.93;;;6.50;93.30;;;;;;5094045;28;20044;-71
2021/03/27 03:53:00;;;;;;;15.43;10.45;;;6.50;93.20;;;;;;5093563;28;20500;-71
2021/03/27 03:55:58;;;;;;;24.35;11.52;;;6.60;93.20;;;;;;5093220;28;20396;-71
2021/03/27 03:58:43;;;;;;;16.70;9.38;;;6.60;93.10;;;;;;5093476;28;20036;-71
2021/03/27 04:01:38;;;;;;;15.20;10.75;;;6.50;92.90;;;;;;5093660;28;20043;-71
2021/03/27 04:04:45;;;;;;;17.88;10.25;;;6.50;93.10;;;;;;5093412;28;20396;-71
2021/03/27 04:07:21;;;;;;;16.45;9.25;;;6.40;92.90;;;;;;5075394;28;20052;-71
2021/03/27 04:10:01;;;;;;;21.52;10.77;;;6.40;92.90;;;;;;5093404;28;20039;-70
2021/03/27 04:12:36;;;;;;;16.73;9.15;;;6.40;93.00;;;;;;5093443;28;20039;-71
2021/03/27 04:15:30;;;;;;;22.75;10.90;;;6.30;93.00;;;;;;5093141;28;20484;-71
2021/03/27 04:18:11;;;;;;;16.58;8.23;;;6.40;92.90;;;;;;5074768;28;20458;-71
2021/03/27 04:21:04;;;;;;;15.65;9.35;;;6.30;92.80;;;;;;5093281;28;20040;-71
2021/03/27 04:23:53;;;;;;;19.80;8.65;;;6.30;93.00;;;;;;5093283;28;20036;-71
2021/03/27 04:26:32;;;;;;;18.27;7.80;;;6.30;92.80;;;;;;5092766;28;20527;-71
2021/03/27 04:29:20;;;;;;;22.80;7.82;;;6.30;92.80;;;;;;5093089;28;20434;-71
2021/03/27 04:32:08;;;;;;;13.25;6.70;;;6.20;92.60;;;;;;5093200;28;20172;-71
2021/03/27 04:34:39;;;;;;;15.25;7.38;;;6.20;92.60;;;;;;5092819;28;20073;-71
2021/03/27 04:37:40;;;;;;;13.60;6.20;;;6.10;92.70;;;;;;5076749;28;20478;-71
2021/03/27 04:40:23;;;;;;;15.80;7.03;;;6.00;92.80;;;;;;5083110;28;20512;-71
2021/03/27 04:43:01;;;;;;;17.35;6.43;;;6.00;92.80;;;;;;5097228;28;20499;-70
2021/03/27 04:45:38;;;;;;;13.20;6.10;;;6.00;92.90;;;;;;5096597;28;20553;-71
2021/03/27 04:48:10;;;;;;;10.30;5.82;;;5.90;92.90;;;;;;5097613;28;20062;-71
2021/03/27 04:51:13;;;;;;;18.67;7.32;;;5.90;92.90;;;;;;5097091;28;20047;-71
2021/03/27 04:54:02;;;;;;;14.02;6.25;;;5.90;93.00;;;;;;5097427;28;20043;-71
2021/03/27 04:56:59;;;;;;;12.23;5.47;;;5.80;92.90;;;;;;5096461;28;20044;-71
2021/03/27 04:59:50;;;;;;;14.95;5.78;;;5.80;93.00;;;;;;5097243;28;20036;-71
2021/03/27 05:02:22;;;;;;;19.48;6.57;;;5.80;92.80;;;;;;5096753;28;20063;-70
2021/03/27 05:05:00;;;;;;;13.63;5.80;;;5.80;92.90;;;;;;5096353;28;20506;-71
2021/03/27 05:07:57;;;;;;;14.88;5.43;;;5.70;92.90;;;;;;5096836;28;20044;-70
2021/03/27 05:11:00;;;;;;;15.70;5.88;;;5.80;92.90;;;;;;5096836;28;20050;-71
2021/03/27 05:13:37;;;;;;;15.05;5.35;;;5.70;93.00;;;;;;5096461;28;20127;-71
2021/03/27 05:16:27;;;;;;;12.60;5.22;;;5.70;93.20;;;;;;5096439;28;20480;-70
2021/03/27 05:19:12;;;;;;;14.52;5.20;;;5.80;93.20;;;;;;5096314;28;20040;-70
2021/03/27 05:21:37;;;;;;;17.95;5.72;;;5.80;93.00;;;;;;5096474;28;20044;-70
2021/03/27 05:24:13;;;;;;;11.18;4.45;;;5.90;92.90;;;;;;5096450;28;20433;-71
2021/03/27 05:27:03;;;;;;;12.32;3.90;;;5.90;92.90;;;;;;5095821;28;20113;-71
2021/03/27 05:29:31;;;;;;;10.27;3.45;;;6.00;92.70;;;;;;5096201;28;20546;-71
2021/03/27 05:32:19;;;;;;;16.20;4.25;;;6.00;92.80;;;;;;5096187;28;20071;-71
2021/03/27 05:34:53;;;;;;;18.60;3.72;;;6.00;92.70;;;;;;5095930;28;20462;-70
2021/03/27 05:37:41;;;;;;;10.27;3.35;;;6.10;92.30;;;;;;5095993;28;20459;-70
2021/03/27 05:40:25;;;;;;;7.50;2.78;;;6.00;91.90;;;;;;5096163;28;20037;-70
2021/03/27 05:42:59;;;;;;;4.60;2.20;;;6.00;91.90;;;;;;5096281;28;20114;-70
2021/03/27 05:45:49;;;;;;;7.50;2.72;;;5.90;91.70;;;;;;5095583;28;20132;-71
2021/03/27 05:48:15;;;;;;;6.35;2.53;;;5.90;91.50;;;;;;5095110;28;20055;-71
2021/03/27 05:51:02;;;;;;;7.50;2.95;;;5.90;91.60;;;;;;5095911;28;20032;-70
2021/03/27 05:53:47;;;;;;;3.60;2.45;;;5.90;91.80;;;;;;5095712;28;20047;-71
2021/03/27 05:56:21;;;;;;;8.27;3.13;;;5.80;91.70;;;;;;5095225;28;20491;-70
2021/03/27 05:59:15;;;;;;;6.70;3.80;;;5.80;91.80;;;;;;5095611;28;20471;-70
2021/03/27 06:02:20;;;;;;;6.57;3.22;;;5.80;92.00;;;;;;5096163;28;20036;-70
2021/03/27 06:05:15;;;;;;;8.15;3.30;;;5.70;92.10;;;;;;5050353;28;20090;-70
2021/03/27 06:07:43;;;;;;;6.93;3.13;;;5.80;92.30;;;;;;5078094;28;20127;-70
2021/03/27 06:10:21;;;;;;;7.72;2.95;;;5.80;92.30;;;;;;5095528;28;20044;-70
2021/03/27 06:13:05;;;;;;;10.85;3.58;;;5.80;92.50;;;;;;5095342;28;20407;-71
2021/03/27 06:15:49;;;;;;;;;;;5.80;92.40;;;;;;5077548;28;20071;-70
2021/03/27 06:18:52;;;;;;;10.13;3.50;;;5.80;92.50;;;;;;5095315;28;19924;-70
2021/03/27 06:22:00;;;;;;;9.30;3.78;;;5.80;92.70;;;;;;5095310;28;20031;-70
2021/03/27 06:24:54;;;;;;;11.35;3.40;;;5.90;92.70;;;;;;5094990;28;20116;-70
2021/03/27 06:27:47;;;;;;;8.85;2.90;;;6.00;92.40;;;;;;5095678;28;20059;-70
2021/03/27 06:30:31;;;;;;;11.10;3.43;;;6.00;92.30;;;;;;5095301;28;20101;-70
2021/03/27 06:33:42;;;;;;;8.25;3.08;;;5.90;92.60;;;;;;5095259;28;20064;-70
2021/03/27 06:36:50;;;;;;;9.35;4.13;;;5.90;92.60;;;;;;5094648;28;20424;-70
2021/03/27 06:40:00;;;;;;;11.27;3.65;;;5.90;92.80;;;;;;5090812;28;20052;-70
2021/03/27 06:42:57;;;;;;;7.75;3.80;;;5.90;93.20;;;;;;5077186;28;20088;-70
2021/03/27 06:45:41;;;;;;;9.73;3.40;;;5.80;93.10;;;;;;5076191;28;20097;-70
2021/03/27 06:48:31;;;;;;;14.32;3.67;;;5.90;92.90;;;;;;5095401;28;20090;-70
2021/03/27 06:51:34;;;;;;;11.70;3.40;;;5.90;93.20;;;;;;5095188;28;20130;-70
2021/03/27 06:54:23;;;;;;;9.05;4.43;;;5.90;92.80;;;;;;5095041;28;20032;-70
2021/03/27 06:57:04;;;;;;;8.95;3.78;;;5.90;93.00;;;;;;5094414;28;20476;-70
2021/03/27 07:00:07;;;;;;;12.63;3.70;;;6.00;92.60;;;;;;5093927;28;20032;-70
2021/03/27 07:02:52;;;;;;;11.18;3.72;;;5.90;92.70;;;;;;5094402;28;20044;-70
2021/03/27 07:05:57;;;;;;;11.70;3.33;;;5.90;92.90;;;;;;5094221;28;20032;-70
2021/03/27 07:08:28;;;;;;;17.08;3.95;;;5.90;92.90;;;;;;5094461;28;20123;-70
2021/03/27 07:11:14;;;;;;;15.88;3.40;;;5.90;93.10;;;;;;5094341;28;20087;-70
2021/03/27 07:14:08;;;;;;;9.77;3.53;;;5.80;92.60;;;;;;5094048;28;20396;-69
2021/03/27 07:17:02;;;;;;;9.38;4.07;;;5.90;92.80;;;;;;5093915;28;20506;-69
2021/03/27 07:20:06;;;;;;;11.82;3.60;;;5.90;92.70;;;;;;5094744;28;20048;-69
2021/03/27 07:23:01;;;;;;;13.50;3.75;;;6.00;93.40;;;;;;5094076;28;20110;-70
2021/03/27 07:26:11;;;;;;;8.63;3.80;;;6.10;93.50;;;;;;5040521;28;20076;-70
2021/03/27 07:29:00;;;;;;;16.00;4.38;;;6.20;93.20;;;;;;5012165;28;20053;-69
2021/03/27 07:31:44;;;;;;;13.80;3.55;;;6.10;92.60;;;;;;5089694;28;20052;-69
2021/03/27 07:34:25;;;;;;;13.80;4.30;;;6.00;92.20;;;;;;5094452;28;20111;-70
2021/03/27 07:37:10;;;;;;;18.65;5.25;;;6.00;92.30;;;;;;5093933;28;20036;-70
2021/03/27 07:40:05;;;;;;;12.25;3.72;;;6.00;92.30;;;;;;5093994;28;20499;-69
2021/03/27 07:42:49;;;;;;;;;;;5.90;92.70;;;;;;5094584;28;20515;-69
2021/03/27 07:45:42;;;;;;;15.93;3.72;;;6.10;92.70;;;;;;5093426;28;19916;-69
2021/03/27 07:48:37;;;;;;;16.35;4.68;;;6.40;92.40;;;;;;5093780;28;20114;-70
2021/03/27 07:51:44;;;;;;;13.70;4.05;;;6.70;91.90;;;;;;5094034;28;20119;-70
2021/03/27 07:54:35;;;;;;;20.30;4.72;;;6.90;91.30;;;;;;5093477;28;20039;-69
2021/03/27 07:57:20;;;;;;;18.00;3.78;;;7.00;90.40;;;;;;5093807;28;20089;-69
2021/03/27 08:00:25;;;;;;;13.52;3.92;;;7.00;89.90;;;;;;5093877;28;20044;-69
2021/03/27 08:02:54;;;;;;;;;;;6.90;90.40;;;;;;5090259;28;20055;-69
2021/03/27 08:05:39;;;;;;;24.15;5.22;;;7.00;89.50;;;;;;5093033;28;20012;-69
2021/03/27 08:08:53;;;;;;;23.30;4.75;;;6.90;90.00;;;;;;5075550;28;20037;-69
2021/03/27 08:11:35;;;;;;;13.30;3.60;;;6.90;90.10;;;;;;5093055;28;20040;-69
2021/03/27 08:14:27;;;;;;;14.15;3.85;;;6.80;89.30;;;;;;5075296;28;20064;-69
2021/03/27 08:17:17;;;;;;;12.50;4.47;;;6.80;89.10;;;;;;5093778;28;20043;-70
2021/03/27 08:19:56;;;;;;;15.48;3.88;;;6.80;88.50;;;;;;5093197;28;20381;-69
2021/03/27 08:22:53;;;;;;;21.48;4.40;;;6.70;87.60;;;;;;5093421;28;20044;-70
2021/03/27 08:25:23;;;;;;;23.88;5.07;;;6.70;87.30;;;;;;5092842;28;20040;-69
2021/03/27 08:28:22;;;;;;;19.63;3.70;;;6.80;87.60;;;;;;5093221;28;20445;-70
2021/03/27 08:31:25;;;;;;;19.58;4.32;;;6.90;86.50;;;;;;5093237;28;20063;-69
2021/03/27 08:34:09;;;;;;;19.38;4.55;;;7.10;84.80;;;;;;5093118;28;20433;-70
2021/03/27 08:37:07;;;;;;;14.13;4.32;;;7.20;83.60;;;;;;5092850;28;20204;-70
2021/03/27 08:39:38;;;;;;;16.38;3.00;;;7.30;82.00;;;;;;5092984;28;20371;-70
2021/03/27 08:42:17;;;;;;;16.95;3.90;;;7.40;81.70;;;;;;5093144;28;20036;-70
2021/03/27 08:45:02;;;;;;;23.40;4.68;;;7.80;82.00;;;;;;5093107;28;20482;-70
2021/03/27 08:47:46;;;;;;;26.00;3.72;;;8.00;81.30;;;;;;5093190;28;20033;-69
2021/03/27 08:50:53;;;;;;;13.93;4.22;;;8.20;80.60;;;;;;5093023;28;20036;-70
2021/03/27 08:53:56;;;;;;;14.30;3.35;;;8.60;80.60;;;;;;5093211;28;20046;-70
2021/03/27 08:56:25;;;;;;;13.20;3.35;;;8.60;78.80;;;;;;5092546;28;20484;-70
2021/03/27 08:59:02;;;;;;;12.73;2.80;;;8.30;77.80;;;;;;5093111;28;20036;-70
2021/03/27 09:01:37;;;;;;;8.60;2.45;;;7.50;81.00;;;;;;5092780;28;20038;-70
2021/03/27 09:04:06;;;;;;;15.35;3.20;;;7.10;80.40;;;;;;5092982;28;20111;-69
2021/03/27 09:06:56;;;;;;;14.55;2.38;;;7.20;80.40;;;;;;5092578;28;20036;-69
2021/03/27 09:10:00;;;;;;;16.00;2.75;;;7.50;82.60;;;;;;5092992;28;20408;-69
2021/03/27 09:12:49;;;;;;;14.40;2.53;;;7.80;80.20;;;;;;5092709;28;20040;-69
2021/03/27 09:15:50;;;;;;;15.73;3.80;;;8.10;79.20;;;;;;5092713;28;20478;-69
2021/03/27 09:18:39;;;;;;;9.68;2.63;;;8.20;75.90;;;;;;5092551;28;20416;-69
2021/03/27 09:21:29;;;;;;;13.00;2.90;;;8.40;77.70;;;;;;5093335;28;20046;-69
2021/03/27 09:24:33;;;;;;;18.60;3.67;;;8.60;78.20;;;;;;5094705;28;20120;-69
2021/03/27 09:27:33;;;;;;;14.00;2.35;;;8.60;73.90;;;;;;5095582;28;20178;-69
2021/03/27 09:30:27;;;;;;;8.25;2.38;;;8.60;75.50;;;;;;5096710;28;20040;-69
2021/03/27 09:33:18;;;;;;;9.38;2.15;;;8.70;72.70;;;;;;5096397;28;20088;-69
2021/03/27 09:35:43;;;;;;;11.80;2.20;;;8.80;73.10;;;;;;5077210;28;20059;-69
2021/03/27 09:38:27;;;;;;;12.77;2.70;;;8.80;71.90;;;;;;5096424;28;20125;-69
2021/03/27 09:40:52;;;;;;;12.77;3.00;;;8.90;73.30;;;;;;5096720;28;20060;-69
2021/03/27 09:43:45;;;;;;;7.75;1.58;;;8.50;67.80;;;;;;5096359;28;20118;-70
2021/03/27 09:46:18;;;;;;;12.40;2.20;;;8.30;68.30;;;;;;5095629;28;20044;-70
2021/03/27 09:52:59;;;;;;;8.35;2.40;;;8.40;69.80;;;;;;5089715;28;20598;-69
2021/03/27 09:55:38;;;;;;;12.25;2.28;;;8.70;70.60;;;;;;5074630;28;20047;-69
2021/03/27 09:58:35;;;;;;;8.18;2.83;;;8.60;71.30;;;;;;5075458;28;20120;-71
2021/03/27 10:01:32;;;;;;;14.00;2.75;;;8.60;73.10;;;;;;5075508;28;20068;-72
2021/03/27 10:04:07;;;;;;;11.98;3.17;;;8.50;73.10;;;;;;5057706;28;20056;-72
2021/03/27 10:06:48;;;;;;;14.38;2.20;;;7.80;79.20;;;;;;5074979;28;20063;-72
2021/03/27 10:09:30;;;;;;;13.52;2.45;;;7.50;76.30;;;;;;5075566;28;20062;-72
2021/03/27 10:12:20;;;;;;;10.88;2.85;;;7.40;77.60;;;;;;5075462;28;20039;-72
2021/03/27 10:14:54;;;;;;;12.13;2.38;;;7.40;80.00;;;;;;5074008;28;20106;-72
2021/03/27 10:17:34;;;;;;;11.77;2.83;;;7.60;78.20;;;;;;5075123;28;20040;-72
2021/03/27 10:20:38;;;;;;;12.27;2.80;;;7.80;80.80;;;;;;5075374;28;20614;-71
2021/03/27 10:23:24;;;;;;;16.85;3.05;;;7.90;77.40;;;;;;5075032;28;20036;-72
2021/03/27 10:26:08;;;;;;;11.73;2.45;;;8.10;79.20;;;;;;5074539;28;20044;-72
2021/03/27 10:28:38;;;;;;;;;;;8.40;73.80;;;;;;5075433;28;20404;-72
2021/03/27 10:31:15;;;;;;;11.27;2.90;;;8.40;74.00;;;;;;5075419;28;20272;-72
2021/03/27 10:34:11;;;;;;;16.52;3.63;;;7.80;78.20;;;;;;5075017;28;20392;-68
2021/03/27 10:36:58;;;;;;;10.38;2.55;;;7.30;80.20;;;;;;5029791;28;20045;-68
2021/03/27 10:39:46;;;;;;;9.77;2.70;;;7.10;80.90;;;;;;5075228;28;20480;-68
2021/03/27 10:42:53;;;;;;;16.73;3.30;;;7.20;80.10;;;;;;5057272;28;20040;-69
2021/03/27 10:45:46;;;;;;;18.65;4.07;;;7.20;78.80;;;;;;5074511;28;20119;-69
2021/03/27 10:48:41;;;;;;;19.63;3.67;;;7.10;78.00;;;;;;5074953;28;20040;-68
2021/03/27 10:51:44;;;;;;;13.40;2.78;;;7.10;78.70;;;;;;5057243;28;20052;-68
2021/03/27 10:54:48;;;;;;;11.88;2.92;;;7.20;83.10;;;;;;5074375;28;20055;-68
2021/03/27 10:57:50;;;;;;;21.27;4.15;;;7.30;78.80;;;;;;5074329;28;20098;-68
2021/03/27 11:00:46;;;;;;;28.58;6.72;;;7.50;79.40;;;;;;5074326;28;20040;-68
2021/03/27 11:03:31;;;;;;;13.98;3.00;;;7.50;79.10;;;;;;5074277;28;20036;-68
2021/03/27 11:06:07;;;;;;;11.95;3.15;;;7.60;80.60;;;;;;5073867;28;20044;-69
2021/03/27 11:08:50;;;;;;;8.98;2.80;;;7.70;77.70;;;;;;5074264;28;20115;-69
2021/03/27 11:11:40;;;;;;;7.30;2.10;;;8.00;80.60;;;;;;5074147;28;20048;-69
2021/03/27 11:14:35;;;;;;;9.98;2.58;;;8.00;75.30;;;;;;5056359;28;20036;-69
2021/03/27 11:17:18;;;;;;;12.15;3.38;;;7.80;73.80;;;;;;5023096;28;20496;-69
2021/03/27 11:20:25;;;;;;;14.30;3.08;;;7.50;73.40;;;;;;5074280;28;20043;-69
2021/03/27 11:23:21;;;;;;;9.98;2.47;;;7.40;73.80;;;;;;5074190;28;20496;-69
2021/03/27 11:25:49;;;;;;;14.63;4.35;;;7.30;74.30;;;;;;5073502;28;20045;-69
2021/03/27 11:28:39;;;;;;;11.80;3.15;;;7.30;77.00;;;;;;5073747;28;20511;-68
2021/03/27 11:31:23;;;;;;;14.52;2.78;;;7.50;76.40;;;;;;5059206;28;20053;-71
2021/03/27 11:34:01;;;;;;;17.60;2.63;;;7.60;76.40;;;;;;5073630;28;20534;-69
2021/03/27 11:36:37;;;;;;;13.07;2.67;;;7.70;76.90;;;;;;5055479;28;20105;-68
2021/03/27 11:39:23;;;;;;;11.73;2.90;;;7.70;75.70;;;;;;5073429;28;20040;-69
2021/03/27 11:42:05;;;;;;;13.77;2.65;;;7.50;77.80;;;;;;5072797;28;20531;-69
2021/03/27 11:44:47;;;;;;;12.10;2.08;;;7.00;78.40;;;;;;5073593;28;20040;-69
2021/03/27 11:47:35;;;;;;;8.30;1.80;;;6.50;77.90;;;;;;5073294;28;20032;-69
2021/03/27 11:50:16;;;;;;;5.50;1.55;;;6.10;78.50;;;;;;5073470;28;20036;-68
2021/03/27 11:52:50;;;;;;;11.48;3.10;;;5.90;80.70;;;;;;5073373;28;20119;-68
2021/03/27 11:55:29;;;;;;;11.43;2.05;;;5.90;82.60;;;;;;5073207;28;20407;-69
2021/03/27 11:58:31;;;;;;;6.57;1.70;;;5.30;82.40;;;;;;5073879;28;20040;-68
2021/03/27 12:01:12;;;;;;;9.20;2.10;;;4.90;83.30;;;;;;5073418;28;20362;-69
2021/03/27 12:04:15;;;;;;;11.35;2.10;;;4.70;85.90;;;;;;5073647;28;20033;-69
2021/03/27 12:06:50;;;;;;;7.45;1.38;;;4.70;89.50;;;;;;5072781;28;20044;-68
2021/03/27 12:09:51;;;;;;;10.48;1.85;;;4.80;88.90;;;;;;5073553;28;20450;-68
2021/03/27 12:12:25;;;;;;;7.10;1.85;;;4.90;89.70;;;;;;5073683;28;20127;-68
2021/03/27 12:15:04;;;;;;;9.80;2.17;;;4.90;90.50;;;;;;5072869;28;20044;-69
2021/03/27 12:17:50;;;;;;;5.00;1.20;;;5.00;90.70;;;;;;5073608;28;20044;-68
2021/03/27 12:20:35;;;;;;;3.90;0.80;;;5.10;90.40;;;;;;5073206;28;20394;-68
2021/03/27 12:23:13;;;;;;;1.38;0.40;;;5.10;90.40;;;;;;5073630;28;20040;-68
2021/03/27 12:25:52;;;;;;;3.97;0.65;;;5.20;90.90;;;;;;5072625;28;20044;-69
2021/03/27 12:28:39;;;;;;;2.45;0.45;;;5.20;91.20;;;;;;5073395;28;20037;-68
2021/03/27 12:31:26;;;;;;;1.90;1.10;;;5.10;91.60;;;;;;5073066;28;20033;-68
2021/03/27 12:34:07;;;;;;;2.92;0.65;;;5.10;91.70;;;;;;5073348;28;20123;-68
2021/03/27 12:36:38;;;;;;;3.42;0.90;;;5.20;91.80;;;;;;5055048;28;20075;-68
2021/03/27 12:39:22;;;;;;;4.68;1.55;;;5.40;92.40;;;;;;5072703;28;20048;-68
2021/03/27 12:41:54;;;;;;;4.57;1.10;;;5.40;92.30;;;;;;5073226;28;20044;-68
2021/03/27 12:44:33;;;;;;;9.65;1.83;;;5.60;92.30;;;;;;5072996;28;20050;-68
2021/03/27 12:47:21;;;;;;;8.05;2.22;;;5.70;92.30;;;;;;5072849;28;20094;-68
2021/03/27 12:50:02;;;;;;;9.55;1.88;;;6.00;92.40;;;;;;5072880;28;20040;-68
2021/03/27 12:52:43;;;;;;;13.50;2.00;;;6.30;92.50;;;;;;5072781;28;20508;-68
2021/03/27 12:55:15;;;;;;;7.15;1.52;;;6.50;92.50;;;;;;5072581;28;20072;-68
2021/03/27 12:57:49;;;;;;;9.60;2.00;;;6.70;91.90;;;;;;5073798;28;20037;-69
2021/03/27 13:00:42;;;;;;;13.25;2.35;;;6.70;91.20;;;;;;5076926;28;20504;-68
2021/03/27 13:03:38;;;;;;;13.70;2.42;;;6.60;91.20;;;;;;5076764;28;20175;-68
2021/03/27 13:06:15;;;;;;;9.27;2.20;;;6.50;90.00;;;;;;5076047;28;20041;-68
2021/03/27 13:08:52;;;;;;;15.68;2.88;;;6.60;90.70;;;;;;5076618;28;20501;-70
2021/03/27 13:11:51;;;;;;;14.00;2.90;;;6.60;90.80;;;;;;5076552;28;20036;-70
2021/03/27 13:14:54;;;;;;;8.70;2.92;;;6.60;90.40;;;;;;5075497;28;20094;-71
2021/03/27 13:17:27;;;;;;;14.20;3.47;;;6.60;90.90;;;;;;5076111;28;20614;-72
2021/03/27 13:19:58;;;;;;;10.38;2.80;;;6.70;91.70;;;;;;5076189;28;20033;-72
2021/03/27 13:23:01;;;;;;;21.45;4.45;;;6.80;91.00;;;;;;5076694;28;20042;-72
2021/03/27 13:25:34;;;;;;;13.70;3.92;;;7.00;91.60;;;;;;4958723;28;20507;-72
2021/03/27 13:28:25;;;;;;;15.32;3.05;;;7.10;91.80;;;;;;5060502;28;20052;-71
2021/03/27 13:30:54;;;;;;;14.70;3.47;;;7.00;89.90;;;;;;5076044;28;20037;-71
2021/03/27 13:33:32;;;;;;;17.52;3.55;;;6.80;89.40;;;;;;5076185;28;20048;-71
2021/03/27 13:36:08;;;;;;;28.02;4.18;;;6.50;88.70;;;;;;5057863;28;20052;-71
2021/03/27 13:38:56;;;;;;;18.63;4.15;;;6.20;89.80;;;;;;5075897;28;20068;-71
2021/03/27 13:41:37;;;;;;;16.63;4.07;;;6.00;89.70;;;;;;5076246;28;20032;-71
2021/03/27 13:44:28;;;;;;;11.52;4.05;;;5.90;90.70;;;;;;5075624;28;20047;-71
2021/03/27 13:47:02;;;;;;;18.80;3.67;;;5.90;91.00;;;;;;5075762;28;20054;-71
2021/03/27 13:49:42;;;;;;;18.75;4.35;;;6.00;91.20;;;;;;5075618;28;20162;-71
2021/03/27 13:52:26;;;;;;;19.88;4.35;;;6.10;90.60;;;;;;5075658;28;20083;-71
2021/03/27 13:55:16;;;;;;;17.13;3.30;;;6.20;91.20;;;;;;5057802;28;20056;-68
2021/03/27 13:58:20;;;;;;;14.32;2.63;;;6.40;91.30;;;;;;5075182;28;20408;-69
2021/03/27 14:01:12;;;;;;;6.87;2.27;;;6.30;87.60;;;;;;5072651;28;20048;-69
2021/03/27 14:04:06;;;;;;;7.97;2.70;;;6.10;89.00;;;;;;5075491;28;20036;-69
2021/03/27 14:06:57;;;;;;;8.02;2.72;;;6.10;90.80;;;;;;5075135;28;20036;-69
2021/03/27 14:09:58;;;;;;;8.73;2.88;;;6.10;91.20;;;;;;5074921;28;20044;-69
2021/03/27 14:12:48;;;;;;;11.18;2.20;;;6.30;91.10;;;;;;5075312;28;20040;-70
2021/03/27 14:15:28;;;;;;;9.88;2.35;;;6.30;90.80;;;;;;5074832;28;20083;-69
2021/03/27 14:18:33;;;;;;;9.43;2.25;;;6.50;90.50;;;;;;5057342;28;20115;-69
2021/03/27 14:21:31;;;;;;;8.30;1.98;;;6.70;90.20;;;;;;5075570;28;20040;-69
2021/03/27 14:24:15;;;;;;;10.13;3.13;;;6.90;89.80;;;;;;5075558;28;20068;-69
2021/03/27 14:27:03;;;;;;;7.05;2.42;;;7.00;87.90;;;;;;5074813;28;20041;-69
2021/03/27 14:29:42;;;;;;;12.35;2.47;;;7.10;88.30;;;;;;5075192;28;20040;-69
2021/03/27 14:32:21;;;;;;;15.68;2.45;;;7.20;87.60;;;;;;5074897;28;20039;-69